Wilmington, North Carolina
Current Conditions -  °F | °C
As of 12:42 AM on Thursday 27 Nov 2014 (Local Time) from KILM Reporting Station
Haze Haze  
Wind Chill: 39°   Ceiling: Unl
Heat Index: 39°   Visibility: 1.2mi
Dew Point: 38°   Wind: 0mph
Humidity: 96%   Direction: NA
Pressure: 30.09"   Gusts: NA
Location:  34.24°N, 77.94°W
Report Text: KILM 270542Z 00000KT 1 1/4SM BR FEW002 FEW043 04/03 A3009 RMK AO2 T00390033
Loading
Personal Weather Stations






























Interactive Weather Map New forecast layout! Learn more

10-Day Weather Forecast

Advertisements
Track Severe Weather on mobile